Time;durP1;ratioP1;P1;durP2;ratioP2;P2;SDS_P1;SDS_P2;PMS_P1;PMS_P2;Temp;Humidity;BMP_temperature;BMP_pressure;BME280_temperature;BME280_humidity;BME280_pressure;Samples;Min_cycle;Max_cycle;Signal;HPM_P1;HPM_P2
2024/03/03 00:01:33;;;;;;;29.00;15.10;;;;;;;9.37;100.00;144464.94;5070268;28;20032;-72
2024/03/03 00:03:58;;;;;;;29.17;15.57;;;;;;;9.44;100.00;144490.91;5068701;28;20486;-73
2024/03/03 00:06:24;;;;;;;22.10;15.20;;;;;;;-140.33;100.00;61596.09;5070723;28;20032;-74
2024/03/03 00:08:49;;;;;;;25.25;14.82;;;;;;;9.48;100.00;144760.16;5069953;28;20160;-73
2024/03/03 00:11:15;;;;;;;26.85;15.52;;;;;;;9.44;100.00;144457.50;5069369;28;20036;-73
2024/03/03 00:13:40;;;;;;;27.00;15.23;;;;;;;9.61;100.00;144556.63;5060568;28;20032;-72
2024/03/03 00:16:06;;;;;;;31.23;14.43;;;;;;;9.48;100.00;144553.34;5070405;28;20024;-73
2024/03/03 00:18:37;;;;;;;29.10;15.75;;;;;;;9.34;100.00;144557.88;5051391;28;20466;-73
2024/03/03 00:21:04;;;;;;;30.13;15.38;;;;;;;8.95;100.00;144465.75;5070031;28;20540;-73
2024/03/03 00:23:29;;;;;;;28.83;16.20;;;;;;;9.01;100.00;144488.03;5069380;28;20033;-73
2024/03/03 00:25:54;;;;;;;28.00;16.73;;;;;;;9.34;100.00;144570.72;5059010;28;20472;-72
2024/03/03 00:28:20;;;;;;;35.75;19.58;;;;;;;9.46;100.00;144623.00;5051367;28;20025;-73
2024/03/03 00:30:46;;;;;;;33.15;18.52;;;;;;;8.41;100.00;144378.16;5069809;28;20378;-73
2024/03/03 00:33:11;;;;;;;30.75;18.13;;;;;;;8.51;100.00;144425.50;5068547;28;20145;-72
2024/03/03 00:35:36;;;;;;;28.48;17.27;;;;;;;8.85;100.00;144492.81;5068782;28;20056;-73
2024/03/03 00:38:02;;;;;;;31.75;17.48;;;;;;;8.96;100.00;144514.38;5051259;28;20031;-73
2024/03/03 00:40:27;;;;;;;29.70;16.38;;;;;;;9.27;100.00;144587.13;5067509;28;20096;-73
2024/03/03 00:42:53;;;;;;;30.40;16.73;;;;;;;8.59;100.00;144441.16;5069817;28;20036;-72
2024/03/03 00:45:18;;;;;;;32.33;16.88;;;;;;;8.14;100.00;144342.13;5070035;28;20024;-76
2024/03/03 00:47:44;;;;;;;30.20;17.48;;;;;;;8.85;100.00;144505.66;5069509;28;20514;-73
2024/03/03 00:50:11;;;;;;;28.10;16.63;;;;;;;9.20;100.00;144570.09;5068518;28;20033;-74
2024/03/03 00:52:36;;;;;;;28.00;15.77;;;;;;;9.18;100.00;144588.34;5069729;28;20151;-73
2024/03/03 00:55:02;;;;;;;28.27;15.93;;;;;;;8.64;100.00;144464.75;5050704;28;20040;-73
2024/03/03 00:57:28;;;;;;;28.05;15.52;;;;;;;8.25;100.00;144380.34;5050647;28;20037;-76
2024/03/03 00:59:53;;;;;;;25.20;15.63;;;;;;;9.33;100.00;144629.97;5069470;28;20438;-75
2024/03/03 01:02:19;;;;;;;27.75;16.27;;;;;;;9.19;100.00;144611.38;5051694;28;20032;-74
2024/03/03 01:04:44;;;;;;;24.55;16.10;;;;;;;8.70;100.00;144501.22;5069577;28;20041;-73
2024/03/03 01:07:09;;;;;;;28.70;16.70;;;;;;;9.04;100.00;144581.25;5057849;28;20033;-73
2024/03/03 01:09:35;;;;;;;30.05;15.60;;;;;;;9.26;100.00;144620.66;5068710;28;20025;-73
2024/03/03 01:12:02;;;;;;;25.65;16.25;;;;;;;8.36;100.00;144424.97;5069254;28;20029;-74
2024/03/03 01:14:28;;;;;;;32.13;16.15;;;;;;;8.37;100.00;144401.78;5067837;28;20505;-73
2024/03/03 01:16:54;;;;;;;29.83;16.00;;;;;;;8.74;100.00;144487.81;5068759;28;20059;-77
2024/03/03 01:19:19;;;;;;;30.45;16.88;;;;;;;8.95;100.00;144505.50;5051218;28;20024;-72
2024/03/03 01:21:44;;;;;;;29.70;16.70;;;;;;;8.98;100.00;144558.97;5069013;28;20043;-73
2024/03/03 01:24:10;;;;;;;26.90;16.75;;;;;;;9.19;100.00;144626.78;5049820;28;20086;-76
2024/03/03 01:26:37;;;;;;;27.55;16.25;;;;;;;8.57;100.00;144456.81;5068419;28;20430;-74
2024/03/03 01:29:02;;;;;;;29.73;16.67;;;;;;;8.21;100.00;144371.91;5068315;28;20499;-72
2024/03/03 01:31:28;;;;;;;26.15;16.90;;;;;;;8.89;100.00;144543.59;5070234;28;20166;-74
2024/03/03 01:33:53;;;;;;;28.75;17.08;;;;;;;8.77;100.00;144510.53;5072444;28;20037;-72
2024/03/03 01:36:19;;;;;;;30.50;16.52;;;;;;;8.87;100.00;144518.19;5069329;28;20033;-73
2024/03/03 01:38:44;;;;;;;32.97;16.60;;;;;;;8.03;100.00;144333.34;5050000;28;20036;-73
2024/03/03 01:41:09;;;;;;;30.83;16.85;;;;;;;8.94;100.00;144441.41;5068333;28;20500;-73
2024/03/03 01:43:35;;;;;;;27.60;15.32;;;;;;;8.79;100.00;144500.00;5068516;28;20099;-71
2024/03/03 01:46:00;;;;;;;24.88;14.88;;;;;;;7.79;100.00;144253.22;5066487;28;20498;-79
2024/03/03 01:48:26;;;;;;;28.92;15.05;;;;;;;8.26;100.00;144345.66;5055842;28;20036;-74
2024/03/03 01:50:53;;;;;;;24.95;15.55;;;;;;;8.48;100.00;144379.72;5067363;28;20024;-73
2024/03/03 01:53:20;;;;;;;25.88;14.95;;;;;;;8.37;100.00;144369.78;5049561;28;20025;-76
2024/03/03 01:55:46;;;;;;;27.35;15.68;;;;;;;7.93;100.00;144260.34;5067322;28;20124;-72
2024/03/03 01:58:14;;;;;;;31.13;16.50;;;;;;;8.51;100.00;144399.84;5067264;28;20119;-73
2024/03/03 02:00:40;;;;;;;33.97;20.73;;;;;;;8.07;100.00;144318.63;5067287;28;20582;-73
2024/03/03 02:03:08;;;;;;;39.38;23.40;;;;;;;7.92;100.00;144277.13;5066628;28;20111;-73
2024/03/03 02:05:35;;;;;;;38.95;21.33;;;;;;;8.21;100.00;144271.91;5067462;28;20029;-75
2024/03/03 02:08:02;;;;;;;30.60;17.95;;;;;;;8.18;100.00;144349.25;5067731;28;20033;-73
2024/03/03 02:10:28;;;;;;;29.45;17.52;;;;;;;8.20;100.00;144332.22;5067692;28;20108;-73
2024/03/03 02:12:53;;;;;;;26.40;16.80;;;;;;;8.15;100.00;144232.94;5068840;28;20570;-73
2024/03/03 02:15:19;;;;;;;30.27;16.10;;;;;;;7.43;100.00;144169.66;5068965;28;20102;-73
2024/03/03 02:17:44;;;;;;;28.08;17.27;;;;;;;7.93;100.00;144297.47;5067357;28;20127;-73
2024/03/03 02:20:10;;;;;;;28.02;15.80;;;;;;;8.26;100.00;144346.84;5069129;28;20025;-73
2024/03/03 02:22:38;;;;;;;26.70;16.58;;;;;;;7.75;100.00;144256.34;5068285;28;20028;-74
2024/03/03 02:25:08;;;;;;;26.88;16.27;;;;;;;7.16;100.00;144136.22;5066713;28;20032;-73
2024/03/03 02:27:35;;;;;;;25.75;15.35;;;;;;;7.33;100.00;144151.91;5050817;28;20114;-74
2024/03/03 02:30:04;;;;;;;29.73;16.67;;;;;;;7.31;100.00;144177.78;5048964;28;20175;-72
2024/03/03 02:32:30;;;;;;;25.35;16.60;;;;;;;7.62;100.00;144167.13;5069110;28;20067;-73
2024/03/03 02:34:56;;;;;;;25.25;15.05;;;;;;;7.79;100.00;144107.19;5050013;28;20477;-72
2024/03/03 02:37:24;;;;;;;27.55;16.00;;;;;;;7.39;100.00;144140.84;5053857;28;20106;-75
2024/03/03 02:39:49;;;;;;;26.15;15.32;;;;;;;7.71;100.00;144200.50;5071850;28;20419;-73
2024/03/03 02:42:15;;;;;;;38.65;19.45;;;;;;;7.03;100.00;144088.03;5071708;28;20033;-73
2024/03/03 02:44:40;;;;;;;33.25;18.90;;;;;;;6.85;100.00;144016.22;5072455;28;20037;-80
2024/03/03 02:47:06;;;;;;;27.65;18.25;;;;;;;7.88;100.00;144287.91;5059828;28;20036;-75
2024/03/03 02:49:31;;;;;;;31.73;18.00;;;;;;;6.71;100.00;144029.53;5071589;28;20036;-74
2024/03/03 02:51:57;;;;;;;32.65;19.73;;;;;;;7.11;100.00;144150.91;5071988;28;20032;-74
2024/03/03 02:54:23;;;;;;;33.08;20.35;;;;;;;7.65;100.00;144271.72;5053958;28;20059;-72
2024/03/03 02:56:49;;;;;;;36.92;22.42;;;;;;;7.05;100.00;144160.75;5070301;28;20066;-73
2024/03/03 02:59:14;;;;;;;33.47;19.90;;;;;;;6.87;100.00;144101.56;5071642;28;20032;-72
2024/03/03 03:01:40;;;;;;;32.40;17.23;;;;;;;7.61;100.00;144249.19;5070109;28;20034;-72
2024/03/03 03:04:05;;;;;;;24.83;14.85;;;;;;;7.65;100.00;144183.38;5053142;28;20407;-75
2024/03/03 03:06:31;;;;;;;25.88;15.15;;;;;;;6.63;100.00;144053.59;5053531;28;20032;-74
2024/03/03 03:08:56;;;;;;;32.45;15.65;;;;;;;6.83;100.00;144112.31;5053188;28;20111;-74
2024/03/03 03:11:22;;;;;;;26.05;15.02;;;;;;;6.81;100.00;144057.69;5052886;28;20491;-74
2024/03/03 03:13:47;;;;;;;28.75;15.20;;;;;;;7.11;100.00;144031.97;5071482;28;20499;-74
2024/03/03 03:16:13;;;;;;;26.63;15.50;;;;;;;6.86;100.00;144065.91;5053194;28;20036;-74
2024/03/03 03:18:38;;;;;;;29.05;16.20;;;;;;;7.24;100.00;144126.16;5071485;28;20028;-77
2024/03/03 03:21:07;;;;;;;28.15;17.38;;;;;;;7.11;100.00;144028.03;5070566;28;20103;-74
2024/03/03 03:23:32;;;;;;;27.42;17.00;;;;;;;6.63;100.00;143997.34;5060677;28;20025;-74
2024/03/03 03:25:58;;;;;;;28.17;16.98;;;;;;;7.18;100.00;144124.38;5070839;28;20035;-74
2024/03/03 03:28:23;;;;;;;31.45;16.95;;;;;;;6.99;100.00;144109.03;5071126;28;20414;-78
2024/03/03 03:30:49;;;;;;;28.27;16.95;;;;;;;7.46;100.00;144255.13;5071042;28;20052;-74
2024/03/03 03:33:15;;;;;;;26.23;17.02;;;;;;;7.03;100.00;144145.66;5070700;28;20107;-74
2024/03/03 03:35:41;;;;;;;30.75;17.15;;;;;;;7.27;100.00;144229.50;5070367;28;20035;-76
2024/03/03 03:38:07;;;;;;;33.50;17.80;;;;;;;7.35;100.00;144093.91;5071050;28;20055;-75
2024/03/03 03:40:32;;;;;;;28.48;17.33;;;;;;;7.37;100.00;144228.19;5071305;28;20059;-74
2024/03/03 03:42:58;;;;;;;29.75;16.48;;;;;;;7.09;100.00;144158.84;5072008;28;20454;-75
2024/03/03 03:45:23;;;;;;;26.33;16.60;;;;;;;6.14;100.00;143921.97;5052207;28;20085;-75
2024/03/03 03:47:49;;;;;;;26.42;14.75;;;;;;;7.17;100.00;144120.75;5052190;28;20419;-75
2024/03/03 03:50:14;;;;;;;26.20;14.07;;;;;;;6.39;100.00;143997.94;5052331;28;20506;-72
2024/03/03 03:52:41;;;;;;;26.40;15.60;;;;;;;-140.33;100.00;61596.09;5068803;28;20036;-75
2024/03/03 03:55:07;;;;;;;47.25;15.73;;;;;;;6.81;100.00;144289.09;5069277;28;20091;-74
2024/03/03 03:57:32;;;;;;;25.15;15.73;;;;;;;6.38;100.00;143904.84;5069165;28;20075;-71
2024/03/03 03:59:58;;;;;;;31.20;16.92;;;;;;;6.78;100.00;144072.06;5068168;28;20036;-72
2024/03/03 04:02:23;;;;;;;32.35;17.40;;;;;;;6.36;100.00;143930.69;5068602;28;20138;-75
2024/03/03 04:04:48;;;;;;;31.45;16.10;;;;;;;6.45;100.00;143985.72;5049548;28;20517;-73
2024/03/03 04:07:14;;;;;;;31.85;17.13;;;;;;;6.40;100.00;143996.63;5065743;28;20063;-72
2024/03/03 04:09:40;;;;;;;27.23;16.83;;;;;;;5.89;100.00;143872.81;5049769;28;20114;-72
2024/03/03 04:12:06;;;;;;;28.83;15.32;;;;;;;6.85;100.00;144089.03;5067950;28;20032;-72
2024/03/03 04:14:33;;;;;;;25.83;16.17;;;;;;;6.28;100.00;143982.84;5071127;28;20062;-70
2024/03/03 04:16:59;;;;;;;32.08;17.17;;;;;;;6.57;100.00;144063.41;5071572;28;20463;-73
2024/03/03 04:19:24;;;;;;;28.02;17.08;;;;;;;6.43;100.00;144084.34;5067105;28;20031;-72
2024/03/03 04:21:50;;;;;;;32.25;18.27;;;;;;;6.44;100.00;144094.41;5054265;28;20024;-69
2024/03/03 04:24:15;;;;;;;30.60;17.35;;;;;;;6.55;100.00;144032.97;5067965;28;20028;-71
2024/03/03 04:26:42;;;;;;;31.42;17.85;;;;;;;6.64;100.00;144079.03;5068019;28;20039;-74
2024/03/03 04:29:07;;;;;;;28.02;16.33;;;;;;;6.77;100.00;144129.84;5049203;28;20036;-74
2024/03/03 04:31:33;;;;;;;31.98;18.05;;;;;;;7.27;100.00;144257.66;5068668;28;20426;-74
2024/03/03 04:33:58;;;;;;;28.35;15.85;;;;;;;8.03;100.00;144319.19;5068417;28;20028;-70
2024/03/03 04:36:24;;;;;;;28.40;17.20;;;;;;;9.18;100.00;144515.09;5068482;28;20031;-72
2024/03/03 04:38:49;;;;;;;28.10;17.25;;;;;;;8.19;100.00;144443.97;5050972;28;20029;-72
2024/03/03 04:41:19;;;;;;;29.95;16.73;;;;;;;7.90;100.00;144277.38;5069301;28;20567;-74
2024/03/03 04:43:45;;;;;;;27.38;17.42;;;;;;;8.56;100.00;144428.72;5069063;28;20036;-73
2024/03/03 04:46:11;;;;;;;40.00;18.77;;;;;;;8.88;100.00;144417.94;5050048;28;20028;-71
2024/03/03 04:48:38;;;;;;;29.92;17.65;;;;;;;9.79;100.00;144614.53;5056191;28;20089;-76
2024/03/03 04:51:04;;;;;;;28.50;19.70;;;;;;;8.41;100.00;144433.34;5050975;28;20039;-75
2024/03/03 04:53:30;;;;;;;31.48;18.63;;;;;;;7.85;100.00;144394.59;5052038;28;20036;-74
2024/03/03 04:55:56;;;;;;;32.33;17.08;;;;;;;6.91;100.00;144179.16;5067422;28;20423;-74
2024/03/03 04:58:21;;;;;;;29.40;17.85;;;;;;;7.24;100.00;144202.94;5069744;28;20039;-74
2024/03/03 05:00:47;;;;;;;32.33;17.08;;;;;;;6.60;100.00;144120.47;5051286;28;20032;-75
2024/03/03 05:03:12;;;;;;;30.10;16.65;;;;;;;7.06;100.00;144250.16;5056466;28;20189;-74
2024/03/03 05:05:38;;;;;;;27.13;17.35;;;;;;;6.78;100.00;144150.16;5069915;28;20024;-74
2024/03/03 05:08:03;;;;;;;31.70;18.92;;;;;;;6.38;100.00;144051.75;5050175;28;20036;-74
2024/03/03 05:10:29;;;;;;;31.38;21.35;;;;;;;6.89;100.00;144185.72;5067138;28;20039;-74
2024/03/03 05:12:54;;;;;;;27.65;17.50;;;;;;;6.68;100.00;144133.53;5050588;28;20185;-74
2024/03/03 05:15:19;;;;;;;32.72;19.85;;;;;;;6.94;100.00;144131.34;5060510;28;20035;-76
2024/03/03 05:17:45;;;;;;;45.67;24.55;;;;;;;6.73;100.00;144134.13;5068449;28;20028;-78
2024/03/03 05:20:10;;;;;;;34.17;21.02;;;;;;;6.44;100.00;144048.41;5068945;28;20039;-74
2024/03/03 05:22:37;;;;;;;29.80;19.33;;;;;;;6.80;100.00;144138.31;5060324;28;20043;-74
2024/03/03 05:25:06;;;;;;;35.05;19.23;;;;;;;7.17;100.00;144205.22;5050636;28;20115;-75
2024/03/03 05:27:32;;;;;;;39.95;26.15;;;;;;;7.08;100.00;144235.78;5046548;28;20040;-74
2024/03/03 05:29:58;;;;;;;47.40;31.75;;;;;;;6.99;100.00;144178.13;5068928;28;20415;-74
2024/03/03 05:32:24;;;;;;;43.20;26.52;;;;;;;7.09;100.00;144196.03;5069094;28;20029;-74
2024/03/03 05:34:49;;;;;;;56.92;37.10;;;;;;;7.18;100.00;144207.63;5050734;28;20036;-74
2024/03/03 05:37:15;;;;;;;46.10;31.50;;;;;;;7.26;100.00;144224.50;5060643;28;20033;-73
2024/03/03 05:39:41;;;;;;;60.05;41.40;;;;;;;6.80;100.00;144111.50;5069073;28;20033;-75
2024/03/03 05:42:08;;;;;;;55.30;40.63;;;;;;;7.54;100.00;144228.44;5071312;28;20051;-74
2024/03/03 05:44:34;;;;;;;42.20;29.52;;;;;;;7.60;100.00;144150.78;5072279;28;20024;-74
2024/03/03 05:47:05;;;;;;;42.33;28.83;;;;;;;7.42;100.00;144240.28;5050109;28;20024;-76
2024/03/03 05:49:30;;;;;;;46.60;29.98;;;;;;;7.75;100.00;144247.31;5055019;28;20024;-74
2024/03/03 05:51:56;;;;;;;49.75;34.03;;;;;;;6.36;100.00;143885.84;5068297;28;20039;-76
2024/03/03 05:54:21;;;;;;;47.20;30.63;;;;;;;7.50;100.00;144138.00;5067649;28;20032;-74
2024/03/03 05:56:47;;;;;;;45.95;28.25;;;;;;;8.03;100.00;144284.63;5050097;28;20036;-75
2024/03/03 05:59:15;;;;;;;40.63;27.42;;;;;;;7.74;100.00;144188.50;5066911;28;20039;-76
2024/03/03 06:01:48;;;;;;;45.63;30.02;;;;;;;8.57;100.00;144357.97;5068672;28;20041;-75
2024/03/03 06:04:20;;;;;;;54.38;36.00;;;;;;;8.56;100.00;144374.84;5058417;28;20028;-74
2024/03/03 06:06:45;;;;;;;;;;;;;;;8.37;100.00;144342.78;5050395;28;20033;-74
2024/03/03 06:09:12;;;;;;;59.30;38.50;;;;;;;7.43;100.00;144135.16;5068815;28;20397;-75
2024/03/03 06:11:41;;;;;;;56.67;35.38;;;;;;;8.34;100.00;144194.41;5071236;28;20182;-74
2024/03/03 06:14:10;;;;;;;52.25;33.40;;;;;;;7.73;100.00;144177.19;5072465;28;20025;-76
2024/03/03 06:16:37;;;;;;;70.32;46.13;;;;;;;8.08;100.00;144240.38;5073569;28;20036;-74
2024/03/03 06:19:03;;;;;;;59.90;38.15;;;;;;;8.15;100.00;144265.03;5072287;28;20071;-74
2024/03/03 06:21:29;;;;;;;53.28;35.15;;;;;;;8.35;100.00;144281.50;5054156;28;20052;-74
2024/03/03 06:23:55;;;;;;;53.80;38.88;;;;;;;8.06;100.00;144172.63;5054247;28;20119;-74
2024/03/03 06:26:21;;;;;;;75.97;51.95;;;;;;;7.96;100.00;144208.72;5054210;28;20075;-75
2024/03/03 06:28:46;;;;;;;75.60;53.53;;;;;;;8.45;100.00;144323.72;5059372;28;20487;-74
2024/03/03 06:31:12;;;;;;;89.80;63.50;;;;;;;8.14;100.00;144171.53;5071634;28;20036;-73
2024/03/03 06:33:38;;;;;;;72.88;51.28;;;;;;;8.26;100.00;144172.47;5071472;28;20036;-75
2024/03/03 06:36:04;;;;;;;80.20;56.50;;;;;;;8.19;100.00;144173.41;5072583;28;20407;-74
2024/03/03 06:38:29;;;;;;;61.88;48.25;;;;;;;8.60;100.00;144186.97;5054030;28;20039;-74
2024/03/03 06:40:55;;;;;;;64.10;44.75;;;;;;;8.66;100.00;144182.22;5071267;28;20419;-75
2024/03/03 06:43:20;;;;;;;62.90;46.60;;;;;;;8.74;100.00;144215.78;5071060;28;20505;-75
2024/03/03 06:45:46;;;;;;;70.95;50.03;;;;;;;9.70;100.00;144390.84;5071535;28;20033;-75
2024/03/03 06:48:12;;;;;;;54.70;40.90;;;;;;;9.40;100.00;144318.09;5070432;28;20044;-75
2024/03/03 06:50:38;;;;;;;54.97;39.75;;;;;;;9.50;100.00;144307.59;5056448;28;20034;-75
2024/03/03 06:53:04;;;;;;;52.78;34.70;;;;;;;9.50;100.00;144307.59;5055230;28;20029;-74
2024/03/03 06:55:29;;;;;;;44.33;31.50;;;;;;;9.83;100.00;144399.22;5071043;28;20094;-74
2024/03/03 06:57:55;;;;;;;46.47;32.53;;;;;;;9.36;100.00;144299.34;5071359;28;20032;-74
2024/03/03 07:00:20;;;;;;;52.03;38.08;;;;;;;9.85;100.00;144307.72;5057951;28;20039;-74
2024/03/03 07:05:30;;;;;;;47.40;32.75;;;;;;;10.80;100.00;144583.22;5071750;28;20039;-73
2024/03/03 07:07:55;;;;;;;46.28;32.55;;;;;;;9.74;100.00;144305.44;5052652;28;20028;-73
2024/03/03 07:10:21;;;;;;;60.00;40.05;;;;;;;10.80;100.00;144504.63;5070816;28;20025;-74
2024/03/03 07:12:46;;;;;;;62.67;45.50;;;;;;;9.77;100.00;144351.25;5070943;28;20021;-73
2024/03/03 07:15:12;;;;;;;54.58;37.80;;;;;;;9.97;100.00;144331.66;5051949;28;20032;-73
2024/03/03 07:17:37;;;;;;;46.90;30.98;;;;;;;10.48;100.00;144505.63;5071602;28;20505;-74
2024/03/03 07:20:05;;;;;;;42.30;29.85;;;;;;;10.32;100.00;144381.72;5064428;28;20036;-74
2024/03/03 07:22:34;;;;;;;43.28;31.17;;;;;;;10.37;100.00;144436.41;5052906;28;20024;-74
2024/03/03 07:25:03;;;;;;;46.10;31.90;;;;;;;10.29;100.00;144415.66;5053023;28;20020;-74
2024/03/03 07:27:29;;;;;;;40.25;27.13;;;;;;;10.09;100.00;144443.06;5052712;28;20028;-73
2024/03/03 07:29:55;;;;;;;40.85;26.35;;;;;;;10.58;100.00;144426.91;5070882;28;20064;-75
2024/03/03 07:32:20;;;;;;;37.30;25.92;;;;;;;10.29;100.00;144377.06;5059275;28;20068;-73
2024/03/03 07:34:48;;;;;;;38.22;25.25;;;;;;;10.65;100.00;144441.28;5052553;28;20061;-74
2024/03/03 07:37:14;;;;;;;38.35;23.52;;;;;;;10.35;100.00;144380.09;5070593;28;20082;-73
2024/03/03 07:39:41;;;;;;;36.65;23.30;;;;;;;10.95;100.00;144496.00;5070708;28;20032;-74
2024/03/03 07:42:08;;;;;;;35.50;24.02;;;;;;;10.90;100.00;144478.69;5071408;28;20120;-74
2024/03/03 07:44:33;;;;;;;38.67;23.95;;;;;;;11.49;100.00;144547.00;5052923;28;20028;-74
2024/03/03 07:46:58;;;;;;;36.83;23.58;;;;;;;11.31;100.00;144486.53;5053830;28;20029;-73
2024/03/03 07:49:24;;;;;;;37.17;24.92;;;;;;;11.82;100.00;144534.22;5052354;28;20036;-73
2024/03/03 07:51:49;;;;;;;37.00;25.27;;;;;;;10.79;100.00;144437.81;5070422;28;20032;-73
2024/03/03 07:54:15;;;;;;;38.03;27.33;;;;;;;11.62;100.00;144498.59;5069879;28;20029;-77
2024/03/03 07:56:40;;;;;;;33.60;22.80;;;;;;;11.66;100.00;144536.69;5070805;28;20056;-75
2024/03/03 07:59:06;;;;;;;33.78;20.73;;;;;;;12.26;100.00;144562.16;5070238;28;20031;-73
2024/03/03 08:01:34;;;;;;;25.38;17.40;;;;;;;12.80;100.00;144730.56;5069972;28;20025;-75
2024/03/03 08:03:59;;;;;;;30.85;18.52;;;;;;;12.58;100.00;144728.88;5069759;28;20508;-73
2024/03/03 08:06:25;;;;;;;28.23;17.27;;;;;;;12.44;100.00;144649.66;5070146;28;20032;-79
2024/03/03 08:08:51;;;;;;;31.27;17.55;;;;;;;12.05;100.00;144584.78;5051491;28;20044;-73
2024/03/03 08:11:16;;;;;;;26.00;16.20;;;;;;;12.49;100.00;144646.31;5069579;28;20043;-73
2024/03/03 08:13:41;;;;;;;45.75;35.03;;;;;;;12.39;100.00;144602.78;5061740;28;20028;-73
2024/03/03 08:16:07;;;;;;;28.77;19.58;;;;;;;11.82;100.00;144575.47;5069627;28;20020;-79
2024/03/03 08:18:33;;;;;;;26.92;19.23;;;;;;;12.12;100.00;144568.16;5054607;28;20051;-73
2024/03/03 08:20:59;;;;;;;28.88;18.20;;;;;;;11.88;100.00;144464.97;5068112;28;20411;-76
2024/03/03 08:23:25;;;;;;;29.33;17.20;;;;;;;11.66;100.00;144441.28;5068474;28;20028;-74
2024/03/03 08:25:50;;;;;;;21.83;14.50;;;;;;;10.78;100.00;144327.22;5060169;28;20040;-76
2024/03/03 08:28:16;;;;;;;20.10;12.90;;;;;;;11.39;100.00;144366.91;5052510;28;20752;-74
2024/03/03 08:30:41;;;;;;;23.73;13.93;;;;;;;11.19;100.00;144338.91;5069620;28;20043;-74
2024/03/03 08:33:07;;;;;;;24.67;14.90;;;;;;;11.40;100.00;144268.78;5068731;28;20032;-73
2024/03/03 08:35:33;;;;;;;24.92;16.20;;;;;;;11.51;100.00;144305.75;5069750;28;20044;-76
2024/03/03 08:37:58;;;;;;;27.65;17.60;;;;;;;11.89;100.00;144346.13;5069863;28;20028;-73
2024/03/03 08:40:23;;;;;;;26.00;16.50;;;;;;;11.35;100.00;144180.56;5056930;28;20471;-76
2024/03/03 08:42:49;;;;;;;23.35;15.73;;;;;;;11.98;100.00;144272.47;5069030;28;20035;-74
2024/03/03 08:45:16;;;;;;;24.38;15.98;;;;;;;12.31;100.00;144300.66;5069027;28;20028;-76
2024/03/03 08:47:42;;;;;;;21.58;14.45;;;;;;;11.53;100.00;144141.59;5069946;28;20081;-73
2024/03/03 08:50:09;;;;;;;24.52;14.98;;;;;;;11.66;100.00;144111.22;5069308;28;20083;-74
2024/03/03 08:52:39;;;;;;;25.55;14.77;;;;;;;11.37;100.00;144030.75;5050350;28;20033;-74
2024/03/03 08:55:05;;;;;;;48.30;26.20;;;;;;;12.23;100.00;144122.63;5050073;28;20076;-74
2024/03/03 08:57:31;;;;;;;26.17;15.27;;;;;;;11.42;100.00;143970.69;5068692;28;20067;-79
2024/03/03 08:59:57;;;;;;;26.10;16.40;;;;;;;11.98;100.00;144015.66;5068563;28;20086;-74
2024/03/03 09:02:23;;;;;;;24.40;15.77;;;;;;;12.06;100.00;144047.88;5067855;28;20082;-74
2024/03/03 09:04:48;;;;;;;22.27;14.60;;;;;;;11.92;100.00;143983.13;5050727;28;20036;-75
2024/03/03 09:07:13;;;;;;;28.17;19.10;;;;;;;10.87;100.00;143697.53;5069313;28;20029;-74
2024/03/03 09:09:39;;;;;;;21.15;13.80;;;;;;;11.52;100.00;143806.66;5059869;28;20036;-73
2024/03/03 09:12:05;;;;;;;22.38;14.15;;;;;;;11.84;100.00;143865.84;5068905;28;20036;-74
2024/03/03 09:14:33;;;;;;;20.77;14.02;;;;;;;11.78;100.00;143794.63;5068710;28;20033;-73
2024/03/03 09:16:59;;;;;;;20.75;14.57;;;;;;;11.89;100.00;143834.03;5069482;28;20033;-73
2024/03/03 09:19:25;;;;;;;24.27;15.32;;;;;;;11.82;100.00;143779.84;5050922;28;20033;-73
2024/03/03 09:21:51;;;;;;;24.70;15.45;;;;;;;12.25;100.00;143767.38;5068578;28;20063;-73
2024/03/03 09:24:19;;;;;;;21.80;15.18;;;;;;;11.88;100.00;143763.38;5068014;28;20044;-73
2024/03/03 09:26:46;;;;;;;22.77;15.68;;;;;;;12.49;100.00;143836.88;5068523;28;20024;-73
2024/03/03 09:29:11;;;;;;;23.48;16.13;;;;;;;12.44;100.00;143822.28;5051265;28;20040;-74
2024/03/03 09:31:37;;;;;;;28.73;17.13;;;;;;;11.90;100.00;143655.91;5067316;28;20411;-73
2024/03/03 09:34:02;;;;;;;26.25;18.98;;;;;;;11.57;100.00;143511.94;5069281;28;20021;-74
2024/03/03 09:36:28;;;;;;;26.90;20.27;;;;;;;12.05;100.00;143572.13;5069128;28;20031;-74
2024/03/03 09:38:53;;;;;;;28.55;17.90;;;;;;;12.29;100.00;143582.22;5068452;28;20028;-73
2024/03/03 09:41:19;;;;;;;26.08;18.48;;;;;;;11.20;100.00;143268.38;5049533;28;20170;-73
2024/03/03 09:43:50;;;;;;;26.77;19.58;;;;;;;12.03;100.00;143434.38;5051153;28;20032;-73
2024/03/03 09:46:15;;;;;;;30.92;22.15;;;;;;;11.33;100.00;143222.28;5071894;28;20029;-73
2024/03/03 09:48:42;;;;;;;32.17;23.23;;;;;;;12.31;100.00;143398.63;5054377;28;20043;-77
2024/03/03 09:51:11;;;;;;;28.13;20.48;;;;;;;11.98;100.00;143262.44;5078797;28;20091;-74
2024/03/03 09:53:37;;;;;;;26.23;20.50;;;;;;;11.67;100.00;143118.41;5066759;28;20446;-75
2024/03/03 09:56:05;;;;;;;38.40;25.65;;;;;;;12.23;100.00;143276.19;5054421;28;20029;-74
2024/03/03 09:58:31;;;;;;;34.08;23.20;;;;;;;11.82;100.00;143164.75;5063929;28;20039;-74
2024/03/03 10:00:58;;;;;;;32.95;21.13;;;;;;;12.02;100.00;143197.22;5070592;28;20040;-73
2024/03/03 10:03:24;;;;;;;38.13;24.95;;;;;;;12.35;100.00;143222.44;5070956;28;20111;-73
2024/03/03 10:05:54;;;;;;;35.80;21.52;;;;;;;12.44;100.00;143223.41;5054860;28;20024;-73
2024/03/03 10:08:21;;;;;;;31.55;20.30;;;;;;;11.96;100.00;143040.97;5072652;28;20028;-73
2024/03/03 10:10:49;;;;;;;36.47;24.52;;;;;;;12.53;100.00;143153.25;5071013;28;20037;-73
2024/03/03 10:13:18;;;;;;;37.90;26.42;;;;;;;12.16;100.00;143005.22;5072147;28;20039;-73
2024/03/03 10:15:45;;;;;;;35.92;23.63;;;;;;;11.79;100.00;142845.56;5072473;28;20218;-75
2024/03/03 10:18:11;;;;;;;41.58;25.48;;;;;;;12.18;100.00;142972.47;5070468;28;20041;-74
2024/03/03 10:20:36;;;;;;;33.60;21.75;;;;;;;11.91;100.00;142873.06;5072599;28;20557;-80
2024/03/03 10:23:02;;;;;;;48.47;31.10;;;;;;;12.68;100.00;143043.41;5072353;28;20036;-74
2024/03/03 10:25:29;;;;;;;36.75;22.95;;;;;;;12.19;100.00;142876.84;5071882;28;20101;-73
2024/03/03 10:28:10;;;;;;;36.67;24.25;;;;;;;12.57;100.00;142953.72;5070538;28;20104;-73
2024/03/03 10:30:35;;;;;;;36.10;24.60;;;;;;;12.46;100.00;142831.88;5061521;28;20036;-72
2024/03/03 10:33:06;;;;;;;41.60;27.80;;;;;;;12.25;100.00;142793.34;5071861;28;20294;-73
2024/03/03 10:35:32;;;;;;;42.75;28.02;;;;;;;11.68;100.00;142587.25;5070845;28;20032;-72
2024/03/03 10:38:03;;;;;;;39.30;27.33;;;;;;;12.91;100.00;142928.06;5072065;28;20037;-73
2024/03/03 10:40:30;;;;;;;36.22;24.65;;;;;;;12.94;100.00;142957.09;5069675;28;20048;-74
2024/03/03 10:42:55;;;;;;;31.50;22.98;;;;;;;13.39;100.00;143027.47;5071637;28;20056;-73
2024/03/03 10:45:21;;;;;;;31.08;23.00;;;;;;;13.74;100.00;143111.31;5071850;28;20503;-73
2024/03/03 10:47:49;;;;;;;35.13;23.90;;;;;;;13.51;100.00;142964.53;5053645;28;20036;-73
2024/03/03 10:50:22;;;;;;;34.20;22.98;;;;;;;13.41;100.00;142838.38;5062331;28;20024;-74
2024/03/03 10:52:49;;;;;;;28.17;21.67;;;;;;;12.71;100.00;142365.00;5071970;28;20559;-73
2024/03/03 10:55:16;;;;;;;40.40;29.35;;;;;;;12.57;100.00;142314.94;5070254;28;20045;-73
2024/03/03 10:57:45;;;;;;;34.45;25.30;;;;;;;13.18;100.00;142482.47;5071240;28;20558;-74
2024/03/03 11:00:22;;;;;;;31.02;22.45;;;;;;;13.50;100.00;142626.03;5054110;28;20506;-73
2024/03/03 11:02:50;;;;;;;37.33;26.77;;;;;;;11.91;100.00;141800.50;5071790;28;20060;-73
2024/03/03 11:05:16;;;;;;;28.05;19.90;;;;;;;13.35;100.00;142301.94;5071289;28;20115;-73